sensor_id;sensor_type;location;lat;lon;timestamp;temperature;humidity
49224;DHT22;35050;51.316;5.994;2022-12-11T00:01:11;2.20;99.90
49224;DHT22;35050;51.316;5.994;2022-12-11T00:03:37;2.10;99.90
49224;DHT22;35050;51.316;5.994;2022-12-11T00:06:08;2.20;99.90
49224;DHT22;35050;51.316;5.994;2022-12-11T00:08:34;2.20;99.90
49224;DHT22;35050;51.316;5.994;2022-12-11T00:11:00;2.30;99.90
49224;DHT22;35050;51.316;5.994;2022-12-11T00:13:25;2.30;99.90
49224;DHT22;35050;51.316;5.994;2022-12-11T00:15:51;2.30;99.90
49224;DHT22;35050;51.316;5.994;2022-12-11T00:18:17;2.20;99.90
49224;DHT22;35050;51.316;5.994;2022-12-11T00:20:43;2.20;99.90
49224;DHT22;35050;51.316;5.994;2022-12-11T00:23:08;2.20;99.90
49224;DHT22;35050;51.316;5.994;2022-12-11T00:25:42;2.30;99.90
49224;DHT22;35050;51.316;5.994;2022-12-11T00:28:10;2.30;99.90
49224;DHT22;35050;51.316;5.994;2022-12-11T00:30:40;2.40;99.90
49224;DHT22;35050;51.316;5.994;2022-12-11T00:33:07;2.30;99.90
49224;DHT22;35050;51.316;5.994;2022-12-11T00:35:36;2.40;99.90
49224;DHT22;35050;51.316;5.994;2022-12-11T00:38:02;2.30;99.90
49224;DHT22;35050;51.316;5.994;2022-12-11T00:40:27;2.20;99.90
49224;DHT22;35050;51.316;5.994;2022-12-11T00:42:53;2.20;99.90
49224;DHT22;35050;51.316;5.994;2022-12-11T00:45:18;2.10;99.90
49224;DHT22;35050;51.316;5.994;2022-12-11T00:47:44;2.20;99.90
49224;DHT22;35050;51.316;5.994;2022-12-11T00:50:10;2.20;99.90
49224;DHT22;35050;51.316;5.994;2022-12-11T00:52:36;2.20;99.90
49224;DHT22;35050;51.316;5.994;2022-12-11T00:55:03;2.20;99.90
49224;DHT22;35050;51.316;5.994;2022-12-11T00:57:29;2.30;99.90
49224;DHT22;35050;51.316;5.994;2022-12-11T00:59:54;2.30;99.90
49224;DHT22;35050;51.316;5.994;2022-12-11T01:02:20;2.30;99.90
49224;DHT22;35050;51.316;5.994;2022-12-11T01:04:46;2.20;99.90
49224;DHT22;35050;51.316;5.994;2022-12-11T01:07:11;2.20;99.90
49224;DHT22;35050;51.316;5.994;2022-12-11T01:09:37;2.10;99.90
49224;DHT22;35050;51.316;5.994;2022-12-11T01:12:21;2.20;99.90
49224;DHT22;35050;51.316;5.994;2022-12-11T01:14:46;2.10;99.90
49224;DHT22;35050;51.316;5.994;2022-12-11T01:17:12;2.20;99.90
49224;DHT22;35050;51.316;5.994;2022-12-11T01:19:38;2.30;99.90
49224;DHT22;35050;51.316;5.994;2022-12-11T01:22:03;2.30;99.90
49224;DHT22;35050;51.316;5.994;2022-12-11T01:24:29;2.40;99.90
49224;DHT22;35050;51.316;5.994;2022-12-11T01:26:55;2.30;99.90
49224;DHT22;35050;51.316;5.994;2022-12-11T01:29:20;2.30;99.90
49224;DHT22;35050;51.316;5.994;2022-12-11T01:31:46;2.40;99.90
49224;DHT22;35050;51.316;5.994;2022-12-11T01:34:12;2.50;99.90
49224;DHT22;35050;51.316;5.994;2022-12-11T01:36:37;2.40;99.90
49224;DHT22;35050;51.316;5.994;2022-12-11T01:39:03;2.40;99.90
49224;DHT22;35050;51.316;5.994;2022-12-11T01:41:28;2.50;99.90
49224;DHT22;35050;51.316;5.994;2022-12-11T01:46:21;2.30;99.90
49224;DHT22;35050;51.316;5.994;2022-12-11T01:48:46;2.30;99.90
49224;DHT22;35050;51.316;5.994;2022-12-11T01:51:12;2.30;99.90
49224;DHT22;35050;51.316;5.994;2022-12-11T01:53:42;2.20;99.90
49224;DHT22;35050;51.316;5.994;2022-12-11T01:56:10;2.10;99.90
49224;DHT22;35050;51.316;5.994;2022-12-11T01:58:46;1.90;99.90
49224;DHT22;35050;51.316;5.994;2022-12-11T02:01:21;2.00;99.90
49224;DHT22;35050;51.316;5.994;2022-12-11T02:03:49;2.00;99.90
49224;DHT22;35050;51.316;5.994;2022-12-11T02:06:37;2.00;99.90
49224;DHT22;35050;51.316;5.994;2022-12-11T02:09:12;2.10;99.90
49224;DHT22;35050;51.316;5.994;2022-12-11T02:14:30;2.10;99.90
49224;DHT22;35050;51.316;5.994;2022-12-11T02:17:23;2.10;99.90
49224;DHT22;35050;51.316;5.994;2022-12-11T02:20:14;2.20;99.90
49224;DHT22;35050;51.316;5.994;2022-12-11T02:34:21;2.30;99.90
49224;DHT22;35050;51.316;5.994;2022-12-11T02:36:51;2.20;99.90
49224;DHT22;35050;51.316;5.994;2022-12-11T02:39:20;2.30;99.90
49224;DHT22;35050;51.316;5.994;2022-12-11T02:41:49;2.30;99.90
49224;DHT22;35050;51.316;5.994;2022-12-11T02:44:18;2.40;99.90
49224;DHT22;35050;51.316;5.994;2022-12-11T02:46:45;2.40;99.90
49224;DHT22;35050;51.316;5.994;2022-12-11T02:49:12;2.40;99.90
49224;DHT22;35050;51.316;5.994;2022-12-11T02:51:40;2.40;99.90
49224;DHT22;35050;51.316;5.994;2022-12-11T02:54:09;2.40;99.90
49224;DHT22;35050;51.316;5.994;2022-12-11T02:56:45;2.50;99.90
49224;DHT22;35050;51.316;5.994;2022-12-11T02:59:15;2.40;99.90
49224;DHT22;35050;51.316;5.994;2022-12-11T03:01:42;2.30;99.90
49224;DHT22;35050;51.316;5.994;2022-12-11T03:04:08;2.40;99.90
49224;DHT22;35050;51.316;5.994;2022-12-11T03:06:44;2.50;99.90
49224;DHT22;35050;51.316;5.994;2022-12-11T03:09:11;2.50;99.90
49224;DHT22;35050;51.316;5.994;2022-12-11T03:11:37;2.50;99.90
49224;DHT22;35050;51.316;5.994;2022-12-11T03:14:03;2.50;99.90
49224;DHT22;35050;51.316;5.994;2022-12-11T03:16:35;2.50;99.90
49224;DHT22;35050;51.316;5.994;2022-12-11T03:21:41;2.50;99.90
49224;DHT22;35050;51.316;5.994;2022-12-11T03:26:44;2.60;99.90
49224;DHT22;35050;51.316;5.994;2022-12-11T03:29:23;2.60;99.90
49224;DHT22;35050;51.316;5.994;2022-12-11T03:32:07;2.60;99.90
49224;DHT22;35050;51.316;5.994;2022-12-11T03:37:04;2.60;99.90
49224;DHT22;35050;51.316;5.994;2022-12-11T03:39:32;2.60;99.90
49224;DHT22;35050;51.316;5.994;2022-12-11T03:42:02;2.50;99.90
49224;DHT22;35050;51.316;5.994;2022-12-11T03:44:31;2.60;99.90
49224;DHT22;35050;51.316;5.994;2022-12-11T03:46:59;2.60;99.90
49224;DHT22;35050;51.316;5.994;2022-12-11T03:49:28;2.60;99.90
49224;DHT22;35050;51.316;5.994;2022-12-11T03:51:57;2.50;99.90
49224;DHT22;35050;51.316;5.994;2022-12-11T03:54:24;2.60;99.90
49224;DHT22;35050;51.316;5.994;2022-12-11T03:56:53;2.40;99.90
49224;DHT22;35050;51.316;5.994;2022-12-11T03:59:19;2.50;99.90
49224;DHT22;35050;51.316;5.994;2022-12-11T04:01:45;2.60;99.90
49224;DHT22;35050;51.316;5.994;2022-12-11T04:04:11;2.60;99.90
49224;DHT22;35050;51.316;5.994;2022-12-11T04:06:36;2.70;99.90
49224;DHT22;35050;51.316;5.994;2022-12-11T04:09:02;2.70;99.90
49224;DHT22;35050;51.316;5.994;2022-12-11T04:11:28;2.60;99.90
49224;DHT22;35050;51.316;5.994;2022-12-11T04:14:04;2.70;99.90
49224;DHT22;35050;51.316;5.994;2022-12-11T04:16:48;2.60;99.90
49224;DHT22;35050;51.316;5.994;2022-12-11T04:19:14;2.60;99.90
49224;DHT22;35050;51.316;5.994;2022-12-11T04:21:58;2.50;99.90
49224;DHT22;35050;51.316;5.994;2022-12-11T04:24:42;2.50;99.90
49224;DHT22;35050;51.316;5.994;2022-12-11T04:27:08;2.50;99.90
49224;DHT22;35050;51.316;5.994;2022-12-11T04:29:34;2.60;99.90
49224;DHT22;35050;51.316;5.994;2022-12-11T04:31:59;2.60;99.90
49224;DHT22;35050;51.316;5.994;2022-12-11T04:34:25;2.50;99.90
49224;DHT22;35050;51.316;5.994;2022-12-11T04:36:51;2.40;99.90
49224;DHT22;35050;51.316;5.994;2022-12-11T04:39:16;2.40;99.90
49224;DHT22;35050;51.316;5.994;2022-12-11T04:41:42;2.40;99.90
49224;DHT22;35050;51.316;5.994;2022-12-11T04:44:08;2.50;99.90
49224;DHT22;35050;51.316;5.994;2022-12-11T04:46:34;2.50;99.90
49224;DHT22;35050;51.316;5.994;2022-12-11T04:49:00;2.60;99.90
49224;DHT22;35050;51.316;5.994;2022-12-11T04:51:26;2.60;99.90
49224;DHT22;35050;51.316;5.994;2022-12-11T04:53:53;2.50;99.90
49224;DHT22;35050;51.316;5.994;2022-12-11T04:56:18;2.70;99.90
49224;DHT22;35050;51.316;5.994;2022-12-11T04:58:44;2.70;99.90
49224;DHT22;35050;51.316;5.994;2022-12-11T05:01:16;2.70;99.90
49224;DHT22;35050;51.316;5.994;2022-12-11T05:03:42;2.60;99.90
49224;DHT22;35050;51.316;5.994;2022-12-11T05:06:08;2.60;99.90
49224;DHT22;35050;51.316;5.994;2022-12-11T05:08:36;2.70;99.90
49224;DHT22;35050;51.316;5.994;2022-12-11T05:11:04;2.60;99.90
49224;DHT22;35050;51.316;5.994;2022-12-11T05:13:31;2.60;99.90
49224;DHT22;35050;51.316;5.994;2022-12-11T05:15:57;2.70;99.90
49224;DHT22;35050;51.316;5.994;2022-12-11T05:18:23;2.60;99.90
49224;DHT22;35050;51.316;5.994;2022-12-11T05:20:56;2.60;99.90
49224;DHT22;35050;51.316;5.994;2022-12-11T05:23:22;2.70;99.90
49224;DHT22;35050;51.316;5.994;2022-12-11T05:25:56;2.80;99.90
49224;DHT22;35050;51.316;5.994;2022-12-11T05:28:23;2.80;99.90
49224;DHT22;35050;51.316;5.994;2022-12-11T05:30:58;2.90;99.90
49224;DHT22;35050;51.316;5.994;2022-12-11T05:33:24;2.80;99.90
49224;DHT22;35050;51.316;5.994;2022-12-11T05:35:49;2.80;99.90
49224;DHT22;35050;51.316;5.994;2022-12-11T05:38:15;2.70;99.90
49224;DHT22;35050;51.316;5.994;2022-12-11T05:40:41;2.80;99.90
49224;DHT22;35050;51.316;5.994;2022-12-11T05:43:07;2.80;99.90
49224;DHT22;35050;51.316;5.994;2022-12-11T05:45:33;2.80;99.90
49224;DHT22;35050;51.316;5.994;2022-12-11T05:47:59;2.80;99.90
49224;DHT22;35050;51.316;5.994;2022-12-11T05:50:24;2.90;99.90
49224;DHT22;35050;51.316;5.994;2022-12-11T05:52:50;2.90;99.90
49224;DHT22;35050;51.316;5.994;2022-12-11T05:55:16;2.80;99.90
49224;DHT22;35050;51.316;5.994;2022-12-11T05:57:41;2.70;99.90
49224;DHT22;35050;51.316;5.994;2022-12-11T06:00:08;2.70;99.90
49224;DHT22;35050;51.316;5.994;2022-12-11T06:02:34;2.80;99.90
49224;DHT22;35050;51.316;5.994;2022-12-11T06:05:00;2.80;99.90
49224;DHT22;35050;51.316;5.994;2022-12-11T06:07:26;2.80;99.90
49224;DHT22;35050;51.316;5.994;2022-12-11T06:09:51;2.90;99.90
49224;DHT22;35050;51.316;5.994;2022-12-11T06:12:17;2.80;99.90
49224;DHT22;35050;51.316;5.994;2022-12-11T06:14:42;2.80;99.90
49224;DHT22;35050;51.316;5.994;2022-12-11T06:17:08;2.90;99.90
49224;DHT22;35050;51.316;5.994;2022-12-11T06:19:34;2.80;99.90
49224;DHT22;35050;51.316;5.994;2022-12-11T06:21:59;2.90;99.90
49224;DHT22;35050;51.316;5.994;2022-12-11T06:24:25;2.70;99.90
49224;DHT22;35050;51.316;5.994;2022-12-11T06:26:51;2.70;99.90
49224;DHT22;35050;51.316;5.994;2022-12-11T06:29:16;2.60;99.90
49224;DHT22;35050;51.316;5.994;2022-12-11T06:31:42;2.60;99.90
49224;DHT22;35050;51.316;5.994;2022-12-11T06:34:10;2.60;99.90
49224;DHT22;35050;51.316;5.994;2022-12-11T06:36:35;2.60;99.90
49224;DHT22;35050;51.316;5.994;2022-12-11T06:39:01;2.60;99.90
49224;DHT22;35050;51.316;5.994;2022-12-11T06:41:27;2.70;99.90
49224;DHT22;35050;51.316;5.994;2022-12-11T06:43:52;2.60;99.90
49224;DHT22;35050;51.316;5.994;2022-12-11T06:46:19;2.70;99.90
49224;DHT22;35050;51.316;5.994;2022-12-11T06:48:46;2.80;99.90
49224;DHT22;35050;51.316;5.994;2022-12-11T06:51:13;2.70;99.90
49224;DHT22;35050;51.316;5.994;2022-12-11T06:53:40;2.50;99.90
49224;DHT22;35050;51.316;5.994;2022-12-11T06:56:09;2.60;99.90
49224;DHT22;35050;51.316;5.994;2022-12-11T06:58:36;2.60;99.90
49224;DHT22;35050;51.316;5.994;2022-12-11T07:01:03;2.70;99.90
49224;DHT22;35050;51.316;5.994;2022-12-11T07:03:29;2.50;99.90
49224;DHT22;35050;51.316;5.994;2022-12-11T07:05:59;2.60;99.90
49224;DHT22;35050;51.316;5.994;2022-12-11T07:08:27;2.60;99.90
49224;DHT22;35050;51.316;5.994;2022-12-11T07:10:52;2.50;99.90
49224;DHT22;35050;51.316;5.994;2022-12-11T07:13:18;2.40;99.90
49224;DHT22;35050;51.316;5.994;2022-12-11T07:15:44;2.60;99.90
49224;DHT22;35050;51.316;5.994;2022-12-11T07:18:09;2.60;99.90
49224;DHT22;35050;51.316;5.994;2022-12-11T07:20:35;2.60;99.90
49224;DHT22;35050;51.316;5.994;2022-12-11T07:23:01;2.80;99.90
49224;DHT22;35050;51.316;5.994;2022-12-11T07:25:26;2.70;99.90
49224;DHT22;35050;51.316;5.994;2022-12-11T07:27:52;2.80;99.90
49224;DHT22;35050;51.316;5.994;2022-12-11T07:30:17;2.70;99.90
49224;DHT22;35050;51.316;5.994;2022-12-11T07:32:43;2.70;99.90
49224;DHT22;35050;51.316;5.994;2022-12-11T07:35:09;2.80;99.90
49224;DHT22;35050;51.316;5.994;2022-12-11T07:37:35;2.80;99.90
49224;DHT22;35050;51.316;5.994;2022-12-11T07:40:00;2.80;99.90
49224;DHT22;35050;51.316;5.994;2022-12-11T07:42:27;2.80;99.90
49224;DHT22;35050;51.316;5.994;2022-12-11T07:44:53;2.80;99.90
49224;DHT22;35050;51.316;5.994;2022-12-11T07:47:18;2.80;99.90
49224;DHT22;35050;51.316;5.994;2022-12-11T07:49:44;2.50;99.90
49224;DHT22;35050;51.316;5.994;2022-12-11T07:52:10;2.40;99.90
49224;DHT22;35050;51.316;5.994;2022-12-11T07:54:35;2.60;99.90
49224;DHT22;35050;51.316;5.994;2022-12-11T07:57:01;2.60;99.90
49224;DHT22;35050;51.316;5.994;2022-12-11T07:59:27;2.70;99.90
49224;DHT22;35050;51.316;5.994;2022-12-11T08:01:52;2.70;99.90
49224;DHT22;35050;51.316;5.994;2022-12-11T08:04:18;2.70;99.90
49224;DHT22;35050;51.316;5.994;2022-12-11T08:06:43;2.70;99.90
49224;DHT22;35050;51.316;5.994;2022-12-11T08:09:11;2.70;99.90
49224;DHT22;35050;51.316;5.994;2022-12-11T08:11:37;2.70;99.90
49224;DHT22;35050;51.316;5.994;2022-12-11T08:14:02;2.70;99.90
49224;DHT22;35050;51.316;5.994;2022-12-11T08:16:31;2.80;99.90
49224;DHT22;35050;51.316;5.994;2022-12-11T08:18:57;2.80;99.90
49224;DHT22;35050;51.316;5.994;2022-12-11T08:21:25;2.50;99.90
49224;DHT22;35050;51.316;5.994;2022-12-11T08:23:51;2.50;99.90
49224;DHT22;35050;51.316;5.994;2022-12-11T08:26:26;2.70;99.90
49224;DHT22;35050;51.316;5.994;2022-12-11T08:28:52;2.60;99.90
49224;DHT22;35050;51.316;5.994;2022-12-11T08:31:18;2.60;99.90
49224;DHT22;35050;51.316;5.994;2022-12-11T08:33:45;2.60;99.90
49224;DHT22;35050;51.316;5.994;2022-12-11T08:36:13;2.60;99.90
49224;DHT22;35050;51.316;5.994;2022-12-11T08:38:39;2.70;99.90
49224;DHT22;35050;51.316;5.994;2022-12-11T08:41:25;2.80;99.90
49224;DHT22;35050;51.316;5.994;2022-12-11T08:43:52;2.80;99.90
49224;DHT22;35050;51.316;5.994;2022-12-11T08:46:20;2.60;99.90
49224;DHT22;35050;51.316;5.994;2022-12-11T08:48:46;2.70;99.90
49224;DHT22;35050;51.316;5.994;2022-12-11T08:51:15;2.60;99.90
49224;DHT22;35050;51.316;5.994;2022-12-11T08:53:41;2.40;99.90
49224;DHT22;35050;51.316;5.994;2022-12-11T08:56:11;2.40;99.90
49224;DHT22;35050;51.316;5.994;2022-12-11T08:58:37;2.40;99.90
49224;DHT22;35050;51.316;5.994;2022-12-11T09:01:11;2.40;99.90
49224;DHT22;35050;51.316;5.994;2022-12-11T09:03:38;2.60;99.90
49224;DHT22;35050;51.316;5.994;2022-12-11T09:06:12;2.70;99.90
49224;DHT22;35050;51.316;5.994;2022-12-11T09:08:38;2.80;99.90
49224;DHT22;35050;51.316;5.994;2022-12-11T09:11:06;2.70;99.90
49224;DHT22;35050;51.316;5.994;2022-12-11T09:13:32;2.60;99.90
49224;DHT22;35050;51.316;5.994;2022-12-11T09:15:58;2.70;99.90
49224;DHT22;35050;51.316;5.994;2022-12-11T09:18:24;2.60;99.90
49224;DHT22;35050;51.316;5.994;2022-12-11T09:20:58;2.60;99.90
49224;DHT22;35050;51.316;5.994;2022-12-11T09:23:24;2.70;99.90
49224;DHT22;35050;51.316;5.994;2022-12-11T09:25:49;2.80;99.90
49224;DHT22;35050;51.316;5.994;2022-12-11T09:28:15;2.60;99.90
49224;DHT22;35050;51.316;5.994;2022-12-11T09:30:41;2.60;99.90
49224;DHT22;35050;51.316;5.994;2022-12-11T09:33:07;2.30;99.90
49224;DHT22;35050;51.316;5.994;2022-12-11T09:35:32;2.40;99.90
49224;DHT22;35050;51.316;5.994;2022-12-11T09:37:58;2.40;99.90
49224;DHT22;35050;51.316;5.994;2022-12-11T09:40:24;2.40;99.90
49224;DHT22;35050;51.316;5.994;2022-12-11T09:42:53;2.60;99.90
49224;DHT22;35050;51.316;5.994;2022-12-11T09:45:19;2.50;99.90
49224;DHT22;35050;51.316;5.994;2022-12-11T09:47:48;2.40;99.90
49224;DHT22;35050;51.316;5.994;2022-12-11T09:50:25;2.60;99.90
49224;DHT22;35050;51.316;5.994;2022-12-11T09:55:29;2.50;99.90
49224;DHT22;35050;51.316;5.994;2022-12-11T09:58:36;2.60;99.90
49224;DHT22;35050;51.316;5.994;2022-12-11T10:01:57;2.80;99.90
49224;DHT22;35050;51.316;5.994;2022-12-11T10:04:30;2.90;99.90
49224;DHT22;35050;51.316;5.994;2022-12-11T10:07:15;3.00;99.90
49224;DHT22;35050;51.316;5.994;2022-12-11T10:13:01;2.70;99.90
49224;DHT22;35050;51.316;5.994;2022-12-11T10:15:56;2.80;99.90
49224;DHT22;35050;51.316;5.994;2022-12-11T10:18:27;2.80;99.90
49224;DHT22;35050;51.316;5.994;2022-12-11T10:20:53;2.80;99.90
49224;DHT22;35050;51.316;5.994;2022-12-11T10:23:26;2.60;99.90
49224;DHT22;35050;51.316;5.994;2022-12-11T10:25:57;2.80;99.90
49224;DHT22;35050;51.316;5.994;2022-12-11T10:28:27;2.90;99.90
49224;DHT22;35050;51.316;5.994;2022-12-11T10:35:59;3.00;99.90
49224;DHT22;35050;51.316;5.994;2022-12-11T10:38:39;2.80;99.90
49224;DHT22;35050;51.316;5.994;2022-12-11T10:41:18;2.90;99.90
49224;DHT22;35050;51.316;5.994;2022-12-11T10:43:47;2.60;99.90
49224;DHT22;35050;51.316;5.994;2022-12-11T10:46:19;2.50;99.90
49224;DHT22;35050;51.316;5.994;2022-12-11T10:51:17;2.40;99.90
49224;DHT22;35050;51.316;5.994;2022-12-11T10:53:47;2.40;99.90
49224;DHT22;35050;51.316;5.994;2022-12-11T10:56:13;2.40;99.90
49224;DHT22;35050;51.316;5.994;2022-12-11T10:58:47;2.40;99.90
49224;DHT22;35050;51.316;5.994;2022-12-11T11:01:15;2.60;99.90
49224;DHT22;35050;51.316;5.994;2022-12-11T11:04:14;2.80;99.90
49224;DHT22;35050;51.316;5.994;2022-12-11T11:06:40;2.80;99.90
49224;DHT22;35050;51.316;5.994;2022-12-11T11:09:30;2.80;99.90
49224;DHT22;35050;51.316;5.994;2022-12-11T11:11:56;2.50;99.90
49224;DHT22;35050;51.316;5.994;2022-12-11T11:14:22;2.40;99.90
49224;DHT22;35050;51.316;5.994;2022-12-11T11:16:49;2.40;99.90
49224;DHT22;35050;51.316;5.994;2022-12-11T11:19:23;2.40;99.90
49224;DHT22;35050;51.316;5.994;2022-12-11T11:21:55;2.30;99.90
49224;DHT22;35050;51.316;5.994;2022-12-11T11:26:57;2.50;99.90
49224;DHT22;35050;51.316;5.994;2022-12-11T11:29:31;2.50;99.90
49224;DHT22;35050;51.316;5.994;2022-12-11T11:32:14;2.40;99.90
49224;DHT22;35050;51.316;5.994;2022-12-11T11:34:41;2.50;99.90
49224;DHT22;35050;51.316;5.994;2022-12-11T11:37:32;2.40;99.90
49224;DHT22;35050;51.316;5.994;2022-12-11T11:40:18;2.50;99.90
49224;DHT22;35050;51.316;5.994;2022-12-11T11:42:48;2.90;99.90
49224;DHT22;35050;51.316;5.994;2022-12-11T11:45:25;2.90;99.90
49224;DHT22;35050;51.316;5.994;2022-12-11T11:51:11;3.00;99.90
49224;DHT22;35050;51.316;5.994;2022-12-11T11:53:39;2.90;99.90
49224;DHT22;35050;51.316;5.994;2022-12-11T12:01:35;2.80;99.90
49224;DHT22;35050;51.316;5.994;2022-12-11T12:04:03;2.90;99.90
49224;DHT22;35050;51.316;5.994;2022-12-11T12:18:10;3.30;99.90
49224;DHT22;35050;51.316;5.994;2022-12-11T12:20:56;3.10;99.90
49224;DHT22;35050;51.316;5.994;2022-12-11T12:23:28;3.10;99.90
49224;DHT22;35050;51.316;5.994;2022-12-11T12:28:37;3.40;99.90
49224;DHT22;35050;51.316;5.994;2022-12-11T12:39:55;3.30;99.90
49224;DHT22;35050;51.316;5.994;2022-12-11T12:42:38;3.20;99.90
49224;DHT22;35050;51.316;5.994;2022-12-11T12:47:42;3.20;99.90
49224;DHT22;35050;51.316;5.994;2022-12-11T12:50:19;3.20;99.90
49224;DHT22;35050;51.316;5.994;2022-12-11T12:52:45;3.40;99.90
49224;DHT22;35050;51.316;5.994;2022-12-11T12:57:53;3.60;99.90
49224;DHT22;35050;51.316;5.994;2022-12-11T13:00:42;3.60;99.90
49224;DHT22;35050;51.316;5.994;2022-12-11T13:03:14;3.70;99.90
49224;DHT22;35050;51.316;5.994;2022-12-11T13:06:11;3.80;99.90
49224;DHT22;35050;51.316;5.994;2022-12-11T13:08:47;3.60;99.90
49224;DHT22;35050;51.316;5.994;2022-12-11T13:11:15;3.60;99.90
49224;DHT22;35050;51.316;5.994;2022-12-11T13:13:42;3.70;99.90
49224;DHT22;35050;51.316;5.994;2022-12-11T13:18:47;3.60;99.90
49224;DHT22;35050;51.316;5.994;2022-12-11T13:23:54;3.70;99.90
49224;DHT22;35050;51.316;5.994;2022-12-11T13:26:31;3.70;99.90
49224;DHT22;35050;51.316;5.994;2022-12-11T13:28:58;3.60;99.90
49224;DHT22;35050;51.316;5.994;2022-12-11T13:31:33;3.60;99.90
49224;DHT22;35050;51.316;5.994;2022-12-11T13:34:16;3.40;99.90
49224;DHT22;35050;51.316;5.994;2022-12-11T13:36:48;3.40;99.90
49224;DHT22;35050;51.316;5.994;2022-12-11T13:39:34;3.60;99.90
49224;DHT22;35050;51.316;5.994;2022-12-11T13:42:05;3.50;99.90
49224;DHT22;35050;51.316;5.994;2022-12-11T13:44:38;3.40;99.90
49224;DHT22;35050;51.316;5.994;2022-12-11T13:47:06;3.50;99.90
49224;DHT22;35050;51.316;5.994;2022-12-11T13:49:39;3.60;99.90
49224;DHT22;35050;51.316;5.994;2022-12-11T13:52:06;3.60;99.90
49224;DHT22;35050;51.316;5.994;2022-12-11T13:54:34;3.50;99.90
49224;DHT22;35050;51.316;5.994;2022-12-11T13:59:34;3.20;99.90
49224;DHT22;35050;51.316;5.994;2022-12-11T14:02:18;3.20;99.90
49224;DHT22;35050;51.316;5.994;2022-12-11T14:04:47;3.30;99.90
49224;DHT22;35050;51.316;5.994;2022-12-11T14:07:15;3.50;99.90
49224;DHT22;35050;51.316;5.994;2022-12-11T14:09:44;3.20;99.90
49224;DHT22;35050;51.316;5.994;2022-12-11T14:12:18;3.20;99.90
49224;DHT22;35050;51.316;5.994;2022-12-11T14:14:52;3.20;99.90
49224;DHT22;35050;51.316;5.994;2022-12-11T14:17:28;3.00;99.90
49224;DHT22;35050;51.316;5.994;2022-12-11T14:19:57;3.20;99.90
49224;DHT22;35050;51.316;5.994;2022-12-11T14:22:25;3.10;99.90
49224;DHT22;35050;51.316;5.994;2022-12-11T14:24:57;3.30;99.90
49224;DHT22;35050;51.316;5.994;2022-12-11T14:27:23;3.20;99.90
49224;DHT22;35050;51.316;5.994;2022-12-11T14:29:49;3.40;99.90
49224;DHT22;35050;51.316;5.994;2022-12-11T14:32:37;3.40;99.90
49224;DHT22;35050;51.316;5.994;2022-12-11T14:35:26;3.20;99.90
49224;DHT22;35050;51.316;5.994;2022-12-11T14:37:53;3.20;99.90
49224;DHT22;35050;51.316;5.994;2022-12-11T14:40:23;3.30;99.90
49224;DHT22;35050;51.316;5.994;2022-12-11T14:42:55;3.40;99.90
49224;DHT22;35050;51.316;5.994;2022-12-11T14:45:48;3.40;99.90
49224;DHT22;35050;51.316;5.994;2022-12-11T14:48:27;3.20;99.90
49224;DHT22;35050;51.316;5.994;2022-12-11T14:50:56;3.30;99.90
49224;DHT22;35050;51.316;5.994;2022-12-11T14:53:25;3.20;99.90
49224;DHT22;35050;51.316;5.994;2022-12-11T14:55:53;3.20;99.90
49224;DHT22;35050;51.316;5.994;2022-12-11T14:58:24;3.10;99.90
49224;DHT22;35050;51.316;5.994;2022-12-11T15:01:05;3.10;99.90
49224;DHT22;35050;51.316;5.994;2022-12-11T15:03:34;3.10;99.90
49224;DHT22;35050;51.316;5.994;2022-12-11T15:06:00;3.20;99.90
49224;DHT22;35050;51.316;5.994;2022-12-11T15:08:29;3.20;99.90
49224;DHT22;35050;51.316;5.994;2022-12-11T15:13:30;3.20;99.90
49224;DHT22;35050;51.316;5.994;2022-12-11T15:15:57;3.10;99.90
49224;DHT22;35050;51.316;5.994;2022-12-11T15:18:33;3.10;99.90
49224;DHT22;35050;51.316;5.994;2022-12-11T15:21:03;2.90;99.90
49224;DHT22;35050;51.316;5.994;2022-12-11T15:23:33;3.00;99.90
49224;DHT22;35050;51.316;5.994;2022-12-11T15:26:02;3.10;99.90
49224;DHT22;35050;51.316;5.994;2022-12-11T15:28:34;3.10;99.90
49224;DHT22;35050;51.316;5.994;2022-12-11T15:31:03;3.10;99.90
49224;DHT22;35050;51.316;5.994;2022-12-11T15:33:29;3.10;99.90
49224;DHT22;35050;51.316;5.994;2022-12-11T15:36:04;3.10;99.90
49224;DHT22;35050;51.316;5.994;2022-12-11T15:38:36;3.10;99.90
49224;DHT22;35050;51.316;5.994;2022-12-11T15:41:03;3.20;99.90
49224;DHT22;35050;51.316;5.994;2022-12-11T15:43:34;3.20;99.90
49224;DHT22;35050;51.316;5.994;2022-12-11T15:46:01;3.10;99.90
49224;DHT22;35050;51.316;5.994;2022-12-11T15:48:27;3.20;99.90
49224;DHT22;35050;51.316;5.994;2022-12-11T15:50:54;3.20;99.90
49224;DHT22;35050;51.316;5.994;2022-12-11T15:53:19;3.10;99.90
49224;DHT22;35050;51.316;5.994;2022-12-11T15:55:45;3.20;99.90
49224;DHT22;35050;51.316;5.994;2022-12-11T15:58:17;3.20;99.90
49224;DHT22;35050;51.316;5.994;2022-12-11T16:00:44;3.10;99.90
49224;DHT22;35050;51.316;5.994;2022-12-11T16:03:11;3.10;99.90
49224;DHT22;35050;51.316;5.994;2022-12-11T16:05:38;3.00;99.90
49224;DHT22;35050;51.316;5.994;2022-12-11T16:08:03;3.10;99.90
49224;DHT22;35050;51.316;5.994;2022-12-11T16:10:29;3.00;99.90
49224;DHT22;35050;51.316;5.994;2022-12-11T16:12:55;3.30;99.90
49224;DHT22;35050;51.316;5.994;2022-12-11T16:15:24;3.30;99.90
49224;DHT22;35050;51.316;5.994;2022-12-11T16:17:58;3.20;99.90
49224;DHT22;35050;51.316;5.994;2022-12-11T16:20:24;3.10;99.90
49224;DHT22;35050;51.316;5.994;2022-12-11T16:22:50;3.10;99.90
49224;DHT22;35050;51.316;5.994;2022-12-11T16:25:15;3.20;99.90
49224;DHT22;35050;51.316;5.994;2022-12-11T16:27:41;3.00;99.90
49224;DHT22;35050;51.316;5.994;2022-12-11T16:30:08;2.90;99.90
49224;DHT22;35050;51.316;5.994;2022-12-11T16:32:35;3.00;99.90
49224;DHT22;35050;51.316;5.994;2022-12-11T16:35:00;2.70;99.90
49224;DHT22;35050;51.316;5.994;2022-12-11T16:37:26;2.80;99.90
49224;DHT22;35050;51.316;5.994;2022-12-11T16:39:52;3.00;99.90
49224;DHT22;35050;51.316;5.994;2022-12-11T16:42:18;2.90;99.90
49224;DHT22;35050;51.316;5.994;2022-12-11T16:44:43;2.90;99.90
49224;DHT22;35050;51.316;5.994;2022-12-11T16:47:09;2.90;99.90
49224;DHT22;35050;51.316;5.994;2022-12-11T16:49:34;3.00;99.90
49224;DHT22;35050;51.316;5.994;2022-12-11T16:52:00;3.00;99.90
49224;DHT22;35050;51.316;5.994;2022-12-11T16:54:26;3.00;99.90
49224;DHT22;35050;51.316;5.994;2022-12-11T16:56:51;3.00;99.90
49224;DHT22;35050;51.316;5.994;2022-12-11T16:59:17;3.10;99.90
49224;DHT22;35050;51.316;5.994;2022-12-11T17:01:42;3.30;99.90
49224;DHT22;35050;51.316;5.994;2022-12-11T17:04:09;3.10;99.90
49224;DHT22;35050;51.316;5.994;2022-12-11T17:06:35;3.10;99.90
49224;DHT22;35050;51.316;5.994;2022-12-11T17:09:01;2.90;99.90
49224;DHT22;35050;51.316;5.994;2022-12-11T17:11:26;3.00;99.90
49224;DHT22;35050;51.316;5.994;2022-12-11T17:13:57;2.90;99.90
49224;DHT22;35050;51.316;5.994;2022-12-11T17:16:23;3.00;99.90
49224;DHT22;35050;51.316;5.994;2022-12-11T17:18:51;2.90;99.90
49224;DHT22;35050;51.316;5.994;2022-12-11T17:21:18;2.90;99.90
49224;DHT22;35050;51.316;5.994;2022-12-11T17:23:44;3.00;99.90
49224;DHT22;35050;51.316;5.994;2022-12-11T17:26:13;3.10;99.90